createdAt,value
2019-02-02T00:01:46.138Z,6.33
2019-02-02T00:04:13.828Z,6.34
2019-02-02T00:06:41.558Z,6.33
2019-02-02T00:09:09.503Z,6.15
2019-02-02T00:11:37.112Z,6.17
2019-02-02T00:14:05.601Z,6.18
2019-02-02T00:16:33.362Z,6.12
2019-02-02T00:19:01.028Z,6.08
2019-02-02T00:21:28.693Z,6.05
2019-02-02T00:23:56.382Z,6.06
2019-02-02T00:26:23.959Z,6.12
2019-02-02T00:28:51.471Z,6.12
2019-02-02T00:31:19.064Z,6.09
2019-02-02T00:33:46.737Z,5.94
2019-02-02T00:36:14.319Z,5.95
2019-02-02T00:38:41.898Z,5.90
2019-02-02T00:41:09.522Z,5.86
2019-02-02T00:43:38.537Z,5.86
2019-02-02T00:46:06.448Z,5.89
2019-02-02T00:48:33.960Z,5.95
2019-02-02T00:51:01.628Z,5.98
2019-02-02T00:53:29.130Z,6.05
2019-02-02T00:55:56.730Z,6.09
2019-02-02T00:58:24.567Z,5.99
2019-02-02T01:00:52.072Z,6.02
2019-02-02T01:03:19.821Z,5.97
2019-02-02T01:05:47.508Z,6.08
2019-02-02T01:08:15.147Z,5.80
2019-02-02T01:10:42.926Z,5.71
2019-02-02T01:13:10.566Z,5.65
2019-02-02T01:15:38.203Z,5.95
2019-02-02T01:18:05.869Z,6.02
2019-02-02T01:20:33.546Z,5.90
2019-02-02T01:23:01.276Z,6.19
2019-02-02T01:25:29.129Z,6.16
2019-02-02T01:28:04.804Z,6.04
2019-02-02T01:30:26.587Z,6.02
2019-02-02T01:32:54.241Z,6.04
2019-02-02T01:35:21.799Z,6.02
2019-02-02T01:37:49.487Z,6.02
2019-02-02T01:40:18.446Z,6.14
2019-02-02T01:42:46.086Z,6.15
2019-02-02T01:45:16.524Z,6.01
2019-02-02T01:47:44.146Z,6.08
2019-02-02T01:50:13.959Z,6.08
2019-02-02T01:52:41.498Z,5.95
2019-02-02T01:55:10.248Z,5.89
2019-02-02T01:57:37.819Z,5.91
2019-02-02T02:00:07.495Z,5.87
2019-02-02T02:02:35.075Z,5.88
2019-02-02T02:05:02.830Z,5.84
2019-02-02T02:07:30.319Z,5.86
2019-02-02T02:09:58.080Z,5.70
2019-02-02T02:12:25.710Z,5.76
2019-02-02T02:14:53.292Z,5.72
2019-02-02T02:17:20.941Z,5.66
2019-02-02T02:19:48.655Z,5.73
2019-02-02T02:22:16.467Z,5.85
2019-02-02T02:24:44.235Z,5.86
2019-02-02T02:27:11.704Z,5.79
2019-02-02T02:29:39.285Z,6.33
2019-02-02T02:32:06.837Z,5.87
2019-02-02T02:34:34.327Z,5.99
2019-02-02T02:37:01.837Z,5.73
2019-02-02T02:39:29.497Z,6.10
2019-02-02T02:41:57.220Z,6.11
2019-02-02T02:44:24.801Z,5.93
2019-02-02T02:46:52.327Z,5.65
2019-02-02T02:49:19.992Z,5.80
2019-02-02T02:51:47.611Z,5.79
2019-02-02T02:54:15.106Z,5.79
2019-02-02T02:56:42.723Z,5.67
2019-02-02T02:59:10.189Z,5.63
2019-02-02T03:01:37.878Z,5.76
2019-02-02T03:04:05.511Z,5.67
2019-02-02T03:06:33.139Z,5.82
2019-02-02T03:09:00.873Z,5.76
2019-02-02T03:11:28.538Z,5.59
2019-02-02T03:13:56.128Z,5.78
2019-02-02T03:16:23.789Z,6.09
2019-02-02T03:18:51.320Z,6.03
2019-02-02T03:21:19.005Z,5.89
2019-02-02T03:23:46.712Z,5.77
2019-02-02T03:26:14.431Z,5.59
2019-02-02T03:28:52.808Z,6.09
2019-02-02T03:31:11.582Z,5.70
2019-02-02T03:33:39.224Z,5.79
2019-02-02T03:36:06.775Z,5.52
2019-02-02T03:38:34.408Z,5.69
2019-02-02T03:41:01.980Z,5.94
2019-02-02T03:43:29.580Z,5.69
2019-02-02T03:45:57.166Z,5.67
2019-02-02T03:48:24.708Z,5.76
2019-02-02T03:50:52.294Z,5.93
2019-02-02T03:53:20.077Z,6.03
2019-02-02T03:55:47.946Z,6.07
2019-02-02T03:58:15.585Z,6.21
2019-02-02T04:00:43.170Z,6.06
2019-02-02T04:03:10.924Z,5.93
2019-02-02T04:05:38.541Z,6.10
2019-02-02T04:08:06.124Z,6.23
2019-02-02T04:10:33.860Z,6.24
2019-02-02T04:13:01.362Z,6.35
2019-02-02T04:15:28.919Z,6.30
2019-02-02T04:17:56.479Z,6.15
2019-02-02T04:20:24.027Z,6.02
2019-02-02T04:22:51.838Z,5.94
2019-02-02T04:25:20.751Z,5.88
2019-02-02T04:27:48.424Z,5.95
2019-02-02T04:30:18.228Z,6.15
2019-02-02T04:32:45.987Z,6.25
2019-02-02T04:35:14.412Z,6.34
2019-02-02T04:37:42.107Z,6.14
2019-02-02T04:40:10.606Z,6.28
2019-02-02T04:42:38.238Z,6.09
2019-02-02T04:45:07.001Z,5.98
2019-02-02T04:47:34.813Z,6.11
2019-02-02T04:50:02.438Z,6.06
2019-02-02T04:52:30.184Z,6.00
2019-02-02T04:54:57.791Z,5.91
2019-02-02T04:57:25.401Z,5.94
2019-02-02T04:59:52.971Z,6.08
2019-02-02T05:02:20.734Z,6.06
2019-02-02T05:04:48.348Z,6.12
2019-02-02T05:07:15.933Z,6.14
2019-02-02T05:09:43.802Z,6.29
2019-02-02T05:12:11.430Z,6.18
2019-02-02T05:14:39.026Z,6.16
2019-02-02T05:17:06.743Z,6.18
2019-02-02T05:19:34.372Z,6.13
2019-02-02T05:22:02.060Z,6.14
2019-02-02T05:24:29.628Z,6.08
2019-02-02T05:26:57.374Z,6.15
2019-02-02T05:29:26.450Z,6.02
2019-02-02T05:31:54.623Z,6.02
2019-02-02T05:34:22.134Z,5.96
2019-02-02T05:36:49.811Z,6.00
2019-02-02T05:39:17.607Z,6.03
2019-02-02T05:41:45.314Z,6.03
2019-02-02T05:44:12.913Z,6.13
2019-02-02T05:46:40.605Z,6.29
2019-02-02T05:49:08.199Z,6.45
2019-02-02T05:51:35.788Z,6.28
2019-02-02T05:54:03.768Z,6.40
2019-02-02T05:56:31.379Z,6.35
2019-02-02T05:58:59.404Z,6.35
2019-02-02T06:01:30.046Z,6.47
2019-02-02T06:03:59.059Z,6.51
2019-02-02T06:06:27.168Z,6.63
2019-02-02T06:08:55.605Z,6.60
2019-02-02T06:11:23.187Z,6.61
2019-02-02T06:13:50.760Z,6.59
2019-02-02T06:16:18.454Z,6.73
